Time;durP1;ratioP1;P1;durP2;ratioP2;P2;SDS_P1;SDS_P2;PMS_P1;PMS_P2;Temp;Humidity;BMP_temperature;BMP_pressure;BME280_temperature;BME280_humidity;BME280_pressure;Samples;Min_cycle;Max_cycle;Signal;HPM_P1;HPM_P2
2021/07/04 00:02:01;;;;;;;12.82;2.85;;;41.90;26.20;;;;;;5085033;28;20506;-62
2021/07/04 00:04:28;;;;;;;9.43;2.88;;;42.00;25.40;;;;;;5085034;28;20158;-62
2021/07/04 00:06:54;;;;;;;23.27;3.60;;;41.90;25.80;;;;;;5078833;28;20190;-63
2021/07/04 00:09:21;;;;;;;60.92;6.03;;;41.90;25.80;;;;;;5086925;28;20087;-62
2021/07/04 00:11:47;;;;;;;15.38;3.22;;;41.90;25.90;;;;;;5085083;28;20101;-62
2021/07/04 00:14:14;;;;;;;39.13;4.50;;;41.90;25.60;;;;;;5082943;28;20068;-62
2021/07/04 00:16:45;;;;;;;38.35;5.25;;;41.80;26.20;;;;;;5085375;28;20072;-64
2021/07/04 00:19:12;;;;;;;21.38;3.13;;;41.80;26.30;;;;;;5081731;28;20069;-67
2021/07/04 00:21:39;;;;;;;27.75;3.63;;;41.60;27.10;;;;;;5079602;28;20218;-65
2021/07/04 00:24:06;;;;;;;20.83;2.80;;;41.50;27.70;;;;;;5080959;28;20143;-61
2021/07/04 00:26:33;;;;;;;9.88;2.50;;;41.40;26.20;;;;;;5081430;28;20077;-62
2021/07/04 00:28:59;;;;;;;15.30;6.60;;;41.30;26.60;;;;;;5083014;28;20073;-63
2021/07/04 00:31:26;;;;;;;15.63;4.03;;;41.30;26.70;;;;;;5082751;28;20096;-62
2021/07/04 00:33:52;;;;;;;9.07;2.80;;;41.30;26.60;;;;;;5083424;28;20154;-62
2021/07/04 00:36:19;;;;;;;13.77;2.78;;;41.30;26.80;;;;;;5082650;28;20072;-64
2021/07/04 00:38:46;;;;;;;14.52;2.65;;;41.40;26.70;;;;;;5083897;28;20073;-62
2021/07/04 00:41:12;;;;;;;8.73;2.40;;;41.40;26.80;;;;;;5085136;28;20117;-63
2021/07/04 00:43:39;;;;;;;23.02;2.90;;;41.30;27.20;;;;;;5078066;28;20139;-65
2021/07/04 00:46:05;;;;;;;19.17;3.20;;;41.30;27.70;;;;;;5085793;28;20149;-65
2021/07/04 00:48:32;;;;;;;17.50;3.00;;;41.30;27.40;;;;;;5086153;28;20069;-64
2021/07/04 00:50:58;;;;;;;14.52;2.95;;;41.20;27.40;;;;;;5083556;28;20105;-61
2021/07/04 00:53:25;;;;;;;14.52;3.05;;;41.00;27.80;;;;;;5083393;28;20080;-64
2021/07/04 00:55:52;;;;;;;14.40;2.80;;;41.00;27.90;;;;;;5083276;28;20101;-62
2021/07/04 00:58:20;;;;;;;33.17;3.60;;;40.90;27.90;;;;;;5084285;28;20091;-62
2021/07/04 01:00:46;;;;;;;16.33;2.88;;;40.80;28.10;;;;;;5083498;28;20081;-62
2021/07/04 01:03:13;;;;;;;56.08;4.45;;;40.70;28.80;;;;;;5081172;28;20175;-66
2021/07/04 01:05:42;;;;;;;39.40;4.10;;;40.70;29.10;;;;;;5077540;28;20077;-64
2021/07/04 01:08:09;;;;;;;30.17;3.20;;;40.70;28.70;;;;;;5082487;28;20079;-65
2021/07/04 01:10:39;;;;;;;6.60;2.60;;;40.60;28.80;;;;;;5081495;28;20085;-65
2021/07/04 01:13:07;;;;;;;8.68;2.55;;;40.60;28.30;;;;;;5081992;28;20092;-67
2021/07/04 01:15:35;;;;;;;9.57;2.28;;;40.60;28.20;;;;;;5080913;28;20080;-62
2021/07/04 01:18:05;;;;;;;20.38;4.28;;;40.60;28.40;;;;;;5080833;28;20136;-63
2021/07/04 01:20:32;;;;;;;20.65;3.10;;;40.50;28.10;;;;;;5081307;28;20114;-63
2021/07/04 01:23:05;;;;;;;8.75;2.75;;;40.50;28.50;;;;;;5083476;28;20118;-64
2021/07/04 01:25:35;;;;;;;13.20;2.42;;;40.40;28.90;;;;;;5084111;28;20071;-67
2021/07/04 01:28:02;;;;;;;14.15;2.90;;;40.30;29.10;;;;;;5083448;28;20069;-64
2021/07/04 01:30:29;;;;;;;9.13;2.90;;;40.30;29.60;;;;;;5084095;28;20138;-63
2021/07/04 01:32:56;;;;;;;9.18;2.60;;;40.20;28.40;;;;;;5086055;28;20504;-66
2021/07/04 01:35:24;;;;;;;10.23;2.17;;;40.20;28.90;;;;;;5082782;28;20112;-65
2021/07/04 01:37:50;;;;;;;18.77;3.92;;;40.20;30.60;;;;;;5084998;28;20179;-65
2021/07/04 01:40:18;;;;;;;20.98;2.38;;;40.00;31.80;;;;;;5081950;28;20069;-64
2021/07/04 01:42:45;;;;;;;10.35;1.73;;;40.00;31.80;;;;;;5086479;28;20121;-65
2021/07/04 01:45:17;;;;;;;16.02;4.22;;;39.80;31.90;;;;;;5085162;28;20069;-64
2021/07/04 01:47:45;;;;;;;21.52;6.25;;;39.70;32.30;;;;;;5081157;28;20085;-65
2021/07/04 01:50:18;;;;;;;17.23;7.43;;;39.50;32.60;;;;;;5087107;28;20092;-65
2021/07/04 01:52:44;;;;;;;18.50;6.18;;;39.50;32.40;;;;;;5086574;28;20077;-65
2021/07/04 01:55:12;;;;;;;16.08;6.05;;;39.50;32.30;;;;;;5089753;28;20072;-65
2021/07/04 01:57:39;;;;;;;12.80;4.20;;;39.40;32.50;;;;;;5085050;28;20453;-66
2021/07/04 02:00:12;;;;;;;12.13;2.97;;;39.30;32.90;;;;;;5086377;28;20590;-67
2021/07/04 02:02:40;;;;;;;11.40;2.40;;;39.30;32.70;;;;;;5085820;28;20535;-66
2021/07/04 02:05:07;;;;;;;11.82;4.30;;;39.20;33.40;;;;;;5086874;28;20068;-67
2021/07/04 02:07:34;;;;;;;25.05;7.25;;;39.10;33.00;;;;;;5082684;28;20084;-66
2021/07/04 02:10:03;;;;;;;27.30;8.77;;;39.10;33.00;;;;;;5084000;28;20201;-66
2021/07/04 02:12:30;;;;;;;25.10;9.20;;;39.00;33.30;;;;;;5082953;28;20096;-66
2021/07/04 02:14:56;;;;;;;22.15;7.18;;;38.90;33.30;;;;;;5090076;28;21556;-64
2021/07/04 02:17:24;;;;;;;20.35;7.95;;;38.80;33.50;;;;;;5083079;28;20125;-65
2021/07/04 02:19:51;;;;;;;23.20;6.85;;;38.80;33.60;;;;;;5083054;28;20458;-66
2021/07/04 02:22:18;;;;;;;14.52;6.57;;;38.70;33.70;;;;;;5079890;28;20432;-64
2021/07/04 02:24:44;;;;;;;25.98;8.18;;;38.70;33.80;;;;;;5085635;28;20081;-65
2021/07/04 02:27:11;;;;;;;26.27;6.00;;;38.60;34.00;;;;;;5085938;28;20513;-65
2021/07/04 02:29:39;;;;;;;26.25;4.90;;;38.50;34.10;;;;;;5084690;28;20100;-64
2021/07/04 02:32:06;;;;;;;17.98;3.97;;;38.50;34.10;;;;;;5083203;28;20103;-65
2021/07/04 02:34:33;;;;;;;19.58;3.92;;;38.40;34.20;;;;;;5088294;28;20533;-65
2021/07/04 02:37:00;;;;;;;19.88;3.72;;;38.30;34.30;;;;;;5080941;28;20080;-64
2021/07/04 02:39:26;;;;;;;21.08;3.45;;;38.20;34.40;;;;;;5081022;28;20073;-65
2021/07/04 02:41:53;;;;;;;20.65;3.33;;;38.10;34.60;;;;;;5081132;28;20108;-64
2021/07/04 02:44:19;;;;;;;22.45;3.38;;;38.10;34.60;;;;;;5083283;28;20144;-65
2021/07/04 02:46:46;;;;;;;12.10;2.42;;;38.10;34.50;;;;;;5082149;28;20476;-65
2021/07/04 02:49:12;;;;;;;17.48;2.25;;;38.00;34.70;;;;;;5082628;28;20077;-66
2021/07/04 02:51:39;;;;;;;13.65;2.40;;;38.00;34.80;;;;;;5082764;28;20089;-64
2021/07/04 02:54:05;;;;;;;12.98;2.55;;;37.90;35.10;;;;;;5084840;28;20068;-63
2021/07/04 02:56:32;;;;;;;14.02;2.10;;;37.80;35.10;;;;;;5082218;28;20080;-64
2021/07/04 02:58:59;;;;;;;13.85;2.60;;;37.80;35.40;;;;;;5087047;28;20118;-64
2021/07/04 03:01:25;;;;;;;12.77;2.38;;;37.80;35.50;;;;;;5084853;28;20082;-65
2021/07/04 03:03:51;;;;;;;10.48;2.00;;;37.70;35.50;;;;;;5080142;28;20100;-65
2021/07/04 03:06:18;;;;;;;16.23;2.10;;;37.60;35.60;;;;;;5084550;28;20085;-65
2021/07/04 03:08:44;;;;;;;13.10;2.20;;;37.60;35.70;;;;;;5085058;28;20066;-65
2021/07/04 03:11:11;;;;;;;21.42;2.17;;;37.60;35.90;;;;;;5082455;28;20121;-66
2021/07/04 03:13:38;;;;;;;15.30;2.35;;;37.50;35.90;;;;;;5084010;28;20138;-67
2021/07/04 03:16:05;;;;;;;21.73;2.05;;;37.50;36.10;;;;;;5088389;28;20080;-66
2021/07/04 03:18:32;;;;;;;20.75;2.50;;;37.40;36.20;;;;;;5084256;28;20072;-65
2021/07/04 03:20:59;;;;;;;18.33;2.78;;;37.40;36.00;;;;;;5087089;28;20077;-67
2021/07/04 03:23:25;;;;;;;7.65;2.05;;;37.30;36.00;;;;;;5084916;28;20073;-66
2021/07/04 03:25:54;;;;;;;11.95;2.50;;;37.30;36.00;;;;;;5086663;28;20092;-67
2021/07/04 03:28:21;;;;;;;10.00;2.20;;;37.30;36.00;;;;;;5086271;28;20061;-69
2021/07/04 03:30:47;;;;;;;25.63;3.53;;;37.30;36.20;;;;;;5081522;28;20123;-67
2021/07/04 03:33:14;;;;;;;24.55;3.70;;;37.20;36.10;;;;;;5085073;28;20076;-67
2021/07/04 03:35:41;;;;;;;22.00;4.57;;;37.10;36.20;;;;;;5086832;28;20533;-66
2021/07/04 03:38:08;;;;;;;20.33;4.88;;;37.10;36.40;;;;;;5085120;28;20099;-67
2021/07/04 03:40:34;;;;;;;21.85;4.55;;;37.10;36.50;;;;;;5081238;28;20081;-67
2021/07/04 03:43:01;;;;;;;21.95;4.55;;;37.10;36.50;;;;;;5083812;28;20112;-66
2021/07/04 03:45:27;;;;;;;20.83;4.88;;;37.00;36.50;;;;;;5083423;28;20079;-67
2021/07/04 03:47:54;;;;;;;23.58;4.55;;;37.00;36.70;;;;;;5084938;28;20072;-67
2021/07/04 03:50:20;;;;;;;27.40;5.60;;;37.00;36.70;;;;;;5078575;28;20072;-67
2021/07/04 03:52:48;;;;;;;32.00;7.50;;;36.90;36.80;;;;;;5064019;28;20088;-66
2021/07/04 03:55:15;;;;;;;29.08;10.05;;;36.90;36.90;;;;;;5083162;28;20068;-68
2021/07/04 03:57:41;;;;;;;30.63;11.30;;;36.90;36.90;;;;;;5088066;28;20076;-66
2021/07/04 04:00:09;;;;;;;42.10;12.00;;;36.90;36.90;;;;;;5082939;28;21104;-67
2021/07/04 04:02:35;;;;;;;42.95;10.73;;;36.80;36.90;;;;;;5085046;28;20073;-67
2021/07/04 04:05:03;;;;;;;49.78;11.27;;;36.70;36.80;;;;;;5084534;28;20080;-66
2021/07/04 04:07:29;;;;;;;43.70;8.68;;;36.80;37.00;;;;;;5082570;28;20080;-67
2021/07/04 04:09:56;;;;;;;38.20;7.22;;;36.70;36.80;;;;;;5078339;28;20080;-66
2021/07/04 04:12:23;;;;;;;30.67;6.03;;;36.70;36.80;;;;;;5084765;28;20105;-67
2021/07/04 04:14:50;;;;;;;26.17;5.50;;;36.60;36.60;;;;;;5081155;28;20087;-67
2021/07/04 04:17:17;;;;;;;25.48;5.82;;;36.60;36.60;;;;;;5082609;28;20077;-66
2021/07/04 04:19:43;;;;;;;21.65;6.60;;;36.50;36.50;;;;;;5084480;28;20426;-66
2021/07/04 04:22:10;;;;;;;33.80;6.57;;;36.50;36.20;;;;;;5064657;28;20069;-65
2021/07/04 04:24:37;;;;;;;27.05;6.03;;;36.40;36.20;;;;;;5080533;28;20072;-65
2021/07/04 04:27:04;;;;;;;34.58;7.22;;;36.40;36.10;;;;;;5079725;28;20175;-66
2021/07/04 04:29:30;;;;;;;30.13;5.55;;;36.30;36.30;;;;;;5084410;28;20077;-65
2021/07/04 04:31:57;;;;;;;26.38;5.25;;;36.30;36.50;;;;;;5082967;28;20104;-67
2021/07/04 04:34:23;;;;;;;26.40;5.03;;;36.20;36.60;;;;;;5081146;28;20150;-65
2021/07/04 04:36:50;;;;;;;29.15;3.58;;;36.20;36.70;;;;;;5083987;28;20104;-66
2021/07/04 04:39:16;;;;;;;20.08;4.03;;;36.20;36.80;;;;;;5078260;28;20077;-65
2021/07/04 04:41:43;;;;;;;20.15;3.28;;;36.10;36.80;;;;;;5078242;28;20196;-65
2021/07/04 04:44:09;;;;;;;18.25;3.05;;;36.10;37.00;;;;;;5083803;28;20092;-66
2021/07/04 04:46:36;;;;;;;18.95;2.92;;;36.10;37.70;;;;;;5079373;28;20080;-66
2021/07/04 04:49:02;;;;;;;33.38;3.53;;;36.00;37.20;;;;;;5080523;28;20078;-65
2021/07/04 04:51:29;;;;;;;18.08;3.20;;;35.90;37.20;;;;;;5086425;28;20100;-65
2021/07/04 04:53:56;;;;;;;19.92;3.65;;;35.90;37.20;;;;;;5086384;28;20104;-64
2021/07/04 04:56:22;;;;;;;14.65;3.70;;;35.80;37.10;;;;;;5081784;28;20085;-64
2021/07/04 04:58:49;;;;;;;21.27;3.50;;;35.80;37.20;;;;;;5087545;28;20072;-66
2021/07/04 05:01:16;;;;;;;13.32;3.05;;;35.70;37.00;;;;;;5088222;28;20084;-66
2021/07/04 05:03:42;;;;;;;10.20;3.67;;;35.60;37.20;;;;;;5086501;28;20441;-65
2021/07/04 05:06:09;;;;;;;10.77;2.75;;;35.60;37.70;;;;;;5083392;28;20085;-66
2021/07/04 05:08:35;;;;;;;9.00;3.03;;;35.40;37.90;;;;;;5084443;28;20498;-65
2021/07/04 05:11:01;;;;;;;18.75;2.67;;;35.40;37.90;;;;;;5087459;28;20429;-64
2021/07/04 05:13:28;;;;;;;7.82;2.20;;;35.40;37.90;;;;;;5081959;28;20065;-66
2021/07/04 05:15:54;;;;;;;7.13;2.00;;;35.30;37.90;;;;;;5088594;28;20069;-65
2021/07/04 05:18:21;;;;;;;6.93;2.40;;;35.30;38.00;;;;;;5086054;28;20147;-64
2021/07/04 05:20:47;;;;;;;8.35;1.80;;;35.20;38.10;;;;;;5087733;28;20598;-66
2021/07/04 05:23:14;;;;;;;9.18;2.00;;;35.10;38.40;;;;;;5086531;28;20606;-66
2021/07/04 05:25:40;;;;;;;17.60;2.92;;;35.10;38.50;;;;;;5084665;28;20146;-65
2021/07/04 05:28:07;;;;;;;15.20;2.10;;;35.00;38.80;;;;;;5088360;28;20079;-66
2021/07/04 05:30:33;;;;;;;13.95;2.17;;;35.00;39.10;;;;;;5082888;28;20566;-65
2021/07/04 05:33:00;;;;;;;12.40;2.20;;;35.00;39.40;;;;;;5091928;28;20534;-65
2021/07/04 05:35:27;;;;;;;12.45;2.60;;;34.90;39.80;;;;;;5085901;28;20514;-65
2021/07/04 05:37:54;;;;;;;9.80;1.88;;;34.90;40.00;;;;;;5084799;28;20073;-65
2021/07/04 05:40:21;;;;;;;12.55;2.13;;;34.80;39.80;;;;;;5088085;28;20115;-65
2021/07/04 05:42:47;;;;;;;17.30;2.00;;;34.80;40.00;;;;;;5083196;28;20571;-64
2021/07/04 05:45:22;;;;;;;13.00;1.90;;;34.70;40.10;;;;;;5088838;28;20133;-65
2021/07/04 05:47:48;;;;;;;6.65;2.10;;;34.80;40.30;;;;;;5084551;28;20159;-65
2021/07/04 05:50:15;;;;;;;7.13;1.80;;;34.60;40.40;;;;;;5086570;28;20088;-65
2021/07/04 05:52:41;;;;;;;10.63;2.50;;;34.60;40.70;;;;;;5086526;28;20124;-65
2021/07/04 05:55:09;;;;;;;14.75;2.13;;;34.60;40.70;;;;;;5083408;28;20072;-65
2021/07/04 05:57:35;;;;;;;8.10;2.00;;;34.60;40.60;;;;;;5087112;28;20072;-65
2021/07/04 06:00:03;;;;;;;7.10;1.95;;;34.60;40.70;;;;;;5086588;28;20098;-65
2021/07/04 06:02:30;;;;;;;10.23;1.85;;;34.50;40.90;;;;;;5086085;28;20122;-66
2021/07/04 06:04:56;;;;;;;10.63;2.10;;;34.40;41.00;;;;;;5086081;28;20093;-65
2021/07/04 06:07:23;;;;;;;12.25;2.33;;;34.40;41.10;;;;;;5081827;28;20130;-66
2021/07/04 06:09:50;;;;;;;17.50;1.90;;;34.30;41.10;;;;;;5080268;28;20077;-65
2021/07/04 06:12:16;;;;;;;6.65;1.70;;;34.60;58.80;;;;;;5087476;28;20180;-65
2021/07/04 06:14:43;;;;;;;10.05;2.38;;;34.30;41.40;;;;;;5088083;28;20072;-66
2021/07/04 06:17:10;;;;;;;7.10;2.33;;;34.10;70.60;;;;;;5088248;28;20074;-67
2021/07/04 06:19:37;;;;;;;10.95;2.28;;;34.00;67.40;;;;;;5084134;28;20431;-66
2021/07/04 06:22:04;;;;;;;8.43;1.90;;;34.10;45.80;;;;;;5084072;28;20053;-65
2021/07/04 06:24:30;;;;;;;11.98;2.95;;;34.00;42.10;;;;;;5086326;28;20160;-65
2021/07/04 06:26:57;;;;;;;18.90;2.50;;;34.00;42.20;;;;;;5082134;28;20126;-66
2021/07/04 06:29:24;;;;;;;16.15;2.28;;;33.90;42.20;;;;;;5081641;28;20072;-66
2021/07/04 06:31:50;;;;;;;12.48;2.25;;;33.90;72.20;;;;;;5083110;28;20150;-64
2021/07/04 06:34:17;;;;;;;15.70;2.10;;;33.60;76.00;;;;;;5085875;28;20450;-64
2021/07/04 06:36:44;;;;;;;7.07;2.28;;;33.90;47.90;;;;;;5080168;28;20028;-66
2021/07/04 06:39:10;;;;;;;13.02;2.10;;;33.90;42.10;;;;;;5087695;28;20075;-66
2021/07/04 06:41:37;;;;;;;14.10;2.85;;;33.70;46.50;;;;;;5066825;28;20543;-65
2021/07/04 06:44:03;;;;;;;10.90;3.38;;;;;;;;;;5083785;28;20070;-65
2021/07/04 06:46:31;;;;;;;15.73;3.47;;;33.70;66.10;;;;;;5087076;28;20028;-65
2021/07/04 06:48:58;;;;;;;16.95;3.88;;;33.80;65.70;;;;;;5086281;28;20073;-66
2021/07/04 06:51:25;;;;;;;13.57;3.72;;;33.50;65.10;;;;;;5081724;28;20100;-65
2021/07/04 06:53:51;;;;;;;13.57;3.38;;;33.60;43.90;;;;;;5083900;28;20094;-66
2021/07/04 06:56:18;;;;;;;15.57;3.78;;;33.50;44.30;;;;;;5082575;28;20134;-65
2021/07/04 06:58:44;;;;;;;11.20;3.75;;;33.60;42.70;;;;;;5087076;28;20104;-65
2021/07/04 07:01:13;;;;;;;15.85;3.90;;;33.60;42.80;;;;;;5084188;28;20160;-64
2021/07/04 07:03:40;;;;;;;8.25;3.65;;;33.50;42.80;;;;;;5083008;28;20165;-65
2021/07/04 07:06:06;;;;;;;10.00;3.55;;;33.60;42.80;;;;;;5079569;28;20632;-65
2021/07/04 07:08:32;;;;;;;13.63;4.20;;;33.30;76.80;;;;;;5088118;28;20079;-65
2021/07/04 07:10:59;;;;;;;12.20;4.00;;;33.60;45.40;;;;;;5083884;28;20179;-64
2021/07/04 07:13:25;;;;;;;10.93;3.95;;;33.40;72.30;;;;;;5081763;28;20067;-65
2021/07/04 07:15:52;;;;;;;10.05;3.80;;;;;;;;;;5083328;28;20433;-64
2021/07/04 07:18:21;;;;;;;12.90;3.22;;;33.30;79.20;;;;;;5082343;28;20085;-64
2021/07/04 07:20:47;;;;;;;13.95;3.83;;;33.40;80.10;;;;;;5080021;28;20068;-65
2021/07/04 07:23:14;;;;;;;11.73;3.05;;;33.40;63.10;;;;;;5083982;28;20565;-64
2021/07/04 07:25:40;;;;;;;10.23;3.47;;;33.30;43.90;;;;;;5082229;28;20073;-65
2021/07/04 07:28:07;;;;;;;10.20;2.95;;;33.30;44.20;;;;;;5087964;28;20134;-66
2021/07/04 07:30:34;;;;;;;7.65;2.50;;;33.30;44.60;;;;;;5082038;28;20072;-67
2021/07/04 07:33:00;;;;;;;12.65;2.92;;;33.30;44.80;;;;;;5083510;28;20521;-64
2021/07/04 07:35:27;;;;;;;12.98;2.35;;;33.20;45.10;;;;;;5086890;28;20096;-65
2021/07/04 07:37:56;;;;;;;4.80;1.70;;;33.10;45.30;;;;;;5081421;28;20516;-67
2021/07/04 07:40:22;;;;;;;8.05;1.98;;;33.10;45.60;;;;;;5068644;28;20145;-61
2021/07/04 07:42:49;;;;;;;12.10;2.70;;;33.20;46.20;;;;;;5081177;28;20112;-61
2021/07/04 07:45:16;;;;;;;18.45;2.15;;;33.70;45.40;;;;;;5082351;28;20083;-62
2021/07/04 07:47:42;;;;;;;8.63;2.20;;;34.10;44.70;;;;;;5078374;28;20096;-62
2021/07/04 07:50:10;;;;;;;7.40;2.58;;;34.30;44.20;;;;;;5083555;28;20073;-62
2021/07/04 07:52:36;;;;;;;6.40;2.05;;;34.60;44.00;;;;;;5081279;28;20142;-61
2021/07/04 07:55:05;;;;;;;10.70;2.30;;;34.90;43.70;;;;;;5080398;28;20077;-61
2021/07/04 07:57:32;;;;;;;14.48;2.33;;;34.90;43.40;;;;;;5083015;28;20503;-62
2021/07/04 07:59:58;;;;;;;13.18;1.98;;;34.80;43.50;;;;;;5079064;28;20607;-62
2021/07/04 08:02:25;;;;;;;9.60;2.20;;;34.80;43.40;;;;;;5083155;28;20091;-62
2021/07/04 08:04:51;;;;;;;7.88;2.33;;;34.70;43.50;;;;;;5084733;28;20077;-62
2021/07/04 08:07:18;;;;;;;10.73;2.22;;;34.50;43.80;;;;;;5086391;28;20077;-64
2021/07/04 08:09:44;;;;;;;15.63;2.55;;;34.60;44.30;;;;;;5083910;28;20109;-60
2021/07/04 08:12:11;;;;;;;15.85;3.17;;;34.60;44.30;;;;;;5065574;28;20561;-62
2021/07/04 08:14:38;;;;;;;10.73;3.42;;;34.60;44.40;;;;;;5079335;28;20072;-61
2021/07/04 08:17:04;;;;;;;12.07;3.50;;;34.40;44.60;;;;;;5078753;28;20544;-60
2021/07/04 08:19:31;;;;;;;10.88;3.38;;;34.40;44.90;;;;;;5083897;28;20445;-63
2021/07/04 08:21:57;;;;;;;16.83;3.58;;;34.50;44.90;;;;;;5078640;28;20077;-62
2021/07/04 08:24:24;;;;;;;17.25;3.13;;;34.40;44.90;;;;;;5086461;28;20075;-62
2021/07/04 08:26:51;;;;;;;12.80;3.25;;;34.30;45.20;;;;;;5080190;28;20088;-61
2021/07/04 08:29:17;;;;;;;14.65;3.25;;;34.20;45.60;;;;;;5086026;28;20466;-61
2021/07/04 08:31:44;;;;;;;13.43;3.80;;;34.10;45.80;;;;;;5084815;28;20093;-62
2021/07/04 08:34:10;;;;;;;15.23;3.70;;;34.20;45.90;;;;;;5084500;28;20084;-62
2021/07/04 08:36:37;;;;;;;10.68;3.42;;;34.20;45.80;;;;;;5084736;28;20099;-63
2021/07/04 08:39:05;;;;;;;12.32;3.65;;;34.20;45.90;;;;;;5086001;28;20128;-62
2021/07/04 08:41:31;;;;;;;16.17;3.88;;;34.10;46.20;;;;;;5084263;28;20116;-63
2021/07/04 08:44:04;;;;;;;12.25;4.03;;;33.90;47.40;;;;;;5083430;28;20104;-62
2021/07/04 08:46:31;;;;;;;19.58;5.10;;;33.90;46.90;;;;;;5083801;28;20185;-61
2021/07/04 08:48:57;;;;;;;19.50;4.72;;;;;;;;;;5088495;28;20080;-61
2021/07/04 08:51:24;;;;;;;15.40;5.03;;;33.80;83.30;;;;;;5086400;28;20039;-62
2021/07/04 08:53:50;;;;;;;24.05;5.78;;;33.90;48.60;;;;;;5088369;28;20083;-62
2021/07/04 08:56:17;;;;;;;20.17;5.65;;;33.90;47.70;;;;;;5087127;28;20065;-60
2021/07/04 08:58:43;;;;;;;15.13;5.47;;;33.90;47.70;;;;;;5086722;28;20107;-62
2021/07/04 09:01:17;;;;;;;13.07;3.88;;;33.60;48.10;;;;;;5081298;28;20076;-61
2021/07/04 09:03:52;;;;;;;13.57;4.07;;;33.20;48.90;;;;;;5086793;28;20076;-61
2021/07/04 09:06:44;;;;;;;11.77;4.35;;;33.20;49.50;;;;;;5087667;28;20075;-60
2021/07/04 09:09:28;;;;;;;11.45;2.70;;;33.00;50.50;;;;;;5089026;28;20118;-63
2021/07/04 09:12:06;;;;;;;10.50;2.72;;;32.80;52.50;;;;;;5082109;28;20100;-62
2021/07/04 09:14:46;;;;;;;12.77;2.20;;;32.60;54.10;;;;;;5081166;28;20068;-62
2021/07/04 09:17:18;;;;;;;10.93;2.45;;;32.40;56.20;;;;;;5088212;28;20088;-62
2021/07/04 09:19:57;;;;;;;10.48;2.45;;;32.20;57.50;;;;;;5087881;28;20104;-62
2021/07/04 09:22:34;;;;;;;7.50;2.60;;;32.20;58.30;;;;;;5087633;28;20090;-63
2021/07/04 09:25:17;;;;;;;12.02;3.17;;;31.70;59.50;;;;;;5082284;28;20206;-61
2021/07/04 09:28:18;;;;;;;13.07;3.42;;;31.70;60.10;;;;;;5082733;28;20080;-62
2021/07/04 09:30:51;;;;;;;16.23;3.80;;;31.60;59.50;;;;;;5080894;28;20089;-62
2021/07/04 09:33:25;;;;;;;13.40;3.15;;;31.60;60.00;;;;;;5084721;28;20553;-61
2021/07/04 09:35:58;;;;;;;13.38;3.30;;;31.60;58.50;;;;;;5087457;28;20088;-60
2021/07/04 09:38:29;;;;;;;8.63;3.00;;;31.50;58.40;;;;;;5084421;28;20155;-62
2021/07/04 09:40:56;;;;;;;8.82;2.83;;;31.70;57.90;;;;;;5084152;28;20169;-63
2021/07/04 09:43:22;;;;;;;10.57;3.03;;;31.60;57.80;;;;;;5072008;28;20091;-63
2021/07/04 09:45:52;;;;;;;11.90;3.00;;;31.50;57.90;;;;;;5084960;28;20525;-62
2021/07/04 09:48:35;;;;;;;8.60;2.92;;;31.40;57.50;;;;;;5088485;28;20077;-62
2021/07/04 09:51:11;;;;;;;12.25;3.00;;;31.50;56.90;;;;;;5085337;28;20210;-61
2021/07/04 09:53:51;;;;;;;8.50;3.10;;;31.50;55.80;;;;;;5083032;28;20108;-61
2021/07/04 09:56:25;;;;;;;10.40;2.30;;;31.60;55.20;;;;;;5084553;28;20081;-62
2021/07/04 09:58:56;;;;;;;9.10;2.75;;;31.60;53.10;;;;;;5086060;28;20107;-61
2021/07/04 10:01:33;;;;;;;8.52;2.47;;;31.60;52.80;;;;;;5084730;28;20156;-61
2021/07/04 10:04:00;;;;;;;9.30;2.60;;;31.70;52.40;;;;;;5085650;28;20072;-63
2021/07/04 10:06:27;;;;;;;7.43;2.28;;;31.70;51.80;;;;;;5084453;28;20069;-62
2021/07/04 10:08:55;;;;;;;7.10;2.67;;;31.70;51.70;;;;;;5085975;28;20104;-62
2021/07/04 10:11:21;;;;;;;10.40;2.30;;;31.70;51.80;;;;;;5085304;28;20081;-61
2021/07/04 10:13:49;;;;;;;8.93;2.67;;;31.70;52.00;;;;;;5086988;28;20160;-61
2021/07/04 10:16:18;;;;;;;13.85;4.18;;;31.70;52.10;;;;;;5085177;28;20073;-61
2021/07/04 10:18:48;;;;;;;8.45;3.55;;;31.70;52.30;;;;;;5086353;28;20089;-60
2021/07/04 10:21:18;;;;;;;11.13;3.58;;;31.70;53.10;;;;;;5085128;28;20076;-61
2021/07/04 10:23:49;;;;;;;17.65;3.88;;;31.60;52.50;;;;;;5082712;28;20167;-61
2021/07/04 10:26:17;;;;;;;15.23;3.20;;;31.60;52.40;;;;;;5082269;28;20122;-61
2021/07/04 10:28:45;;;;;;;6.97;3.40;;;31.60;52.40;;;;;;5085256;28;20083;-61
2021/07/04 10:31:15;;;;;;;10.50;2.65;;;31.60;52.30;;;;;;5083195;28;20138;-61
2021/07/04 10:33:42;;;;;;;15.20;3.15;;;31.50;52.20;;;;;;5085183;28;20069;-62
2021/07/04 10:36:12;;;;;;;12.55;2.72;;;31.50;52.00;;;;;;5082627;28;20444;-60
2021/07/04 10:38:45;;;;;;;11.82;2.67;;;31.60;51.70;;;;;;5085256;28;20457;-60
2021/07/04 10:41:17;;;;;;;10.15;2.50;;;31.50;51.70;;;;;;5085918;28;20109;-61
2021/07/04 10:44:00;;;;;;;5.40;2.20;;;31.50;51.60;;;;;;5084766;28;20092;-62
2021/07/04 10:46:43;;;;;;;9.80;2.15;;;31.30;51.40;;;;;;5087471;28;20079;-61
2021/07/04 10:49:15;;;;;;;11.35;2.30;;;31.50;51.40;;;;;;5080630;28;20487;-60
2021/07/04 10:52:06;;;;;;;7.28;2.80;;;31.50;51.40;;;;;;5082162;28;20088;-62
2021/07/04 10:54:45;;;;;;;11.32;3.90;;;31.40;51.40;;;;;;5081217;28;20087;-62
2021/07/04 10:57:28;;;;;;;14.82;3.58;;;31.40;51.70;;;;;;5085453;28;20069;-62
2021/07/04 11:02:49;;;;;;;9.00;3.00;;;31.20;52.20;;;;;;5082578;28;20073;-62
2021/07/04 11:05:36;;;;;;;18.67;3.22;;;31.20;52.50;;;;;;5084635;28;20485;-61
2021/07/04 11:08:05;;;;;;;20.10;3.70;;;31.20;52.80;;;;;;5076032;28;20088;-62
2021/07/04 11:10:38;;;;;;;13.05;4.50;;;31.20;52.80;;;;;;5078812;28;20432;-61
2021/07/04 11:13:07;;;;;;;17.65;4.93;;;31.20;53.00;;;;;;5082105;28;20089;-63
2021/07/04 11:15:39;;;;;;;15.07;4.90;;;31.20;53.10;;;;;;5084940;28;20084;-60
2021/07/04 11:18:06;;;;;;;19.30;5.65;;;31.20;53.10;;;;;;5081021;28;20084;-60
2021/07/04 11:20:40;;;;;;;18.27;5.82;;;31.30;53.10;;;;;;5085305;28;20126;-62
2021/07/04 11:23:19;;;;;;;15.38;5.65;;;31.30;53.20;;;;;;5084135;28;20077;-61
2021/07/04 11:25:57;;;;;;;14.85;5.28;;;31.30;53.50;;;;;;5083200;28;20114;-62
2021/07/04 11:28:34;;;;;;;18.98;5.70;;;31.20;53.80;;;;;;5082268;28;20072;-59
2021/07/04 11:31:05;;;;;;;14.27;4.70;;;31.20;53.90;;;;;;5080728;28;20709;-62
2021/07/04 11:33:47;;;;;;;16.35;4.93;;;31.20;54.10;;;;;;5079186;28;20156;-62
2021/07/04 11:36:17;;;;;;;10.57;3.38;;;31.20;54.20;;;;;;5085823;28;20085;-62
2021/07/04 11:38:50;;;;;;;9.30;3.33;;;31.20;54.30;;;;;;5084709;28;20088;-62
2021/07/04 11:41:23;;;;;;;8.80;3.13;;;31.20;54.40;;;;;;5068715;28;20115;-62
2021/07/04 11:43:51;;;;;;;6.45;2.38;;;31.10;54.60;;;;;;5083396;28;20080;-62
2021/07/04 11:46:21;;;;;;;7.68;2.78;;;31.20;54.90;;;;;;5079875;28;20069;-63
2021/07/04 11:48:59;;;;;;;10.45;2.67;;;31.00;55.60;;;;;;5082342;28;20077;-62
2021/07/04 11:51:50;;;;;;;7.18;2.63;;;31.00;55.80;;;;;;5082111;28;20117;-61
2021/07/04 11:54:35;;;;;;;8.95;2.33;;;30.90;56.10;;;;;;5080641;28;20077;-62
2021/07/04 11:59:57;;;;;;;12.73;3.42;;;30.90;56.90;;;;;;5085432;28;20156;-60
2021/07/04 12:02:24;;;;;;;9.15;3.85;;;31.00;57.00;;;;;;5083486;28;20073;-60
2021/07/04 12:04:50;;;;;;;12.48;3.92;;;30.90;57.40;;;;;;5080490;28;20103;-62
2021/07/04 12:07:22;;;;;;;11.10;4.28;;;30.90;57.60;;;;;;5085072;28;20493;-61
2021/07/04 12:09:50;;;;;;;11.00;4.30;;;30.80;58.50;;;;;;5085612;28;20076;-61
2021/07/04 12:12:20;;;;;;;12.65;4.53;;;30.90;58.70;;;;;;5083229;28;20097;-61
2021/07/04 12:14:49;;;;;;;12.55;4.63;;;30.70;59.40;;;;;;5082221;28;20077;-60
2021/07/04 12:17:27;;;;;;;9.48;2.85;;;30.70;59.20;;;;;;5082088;28;20526;-61
2021/07/04 12:20:06;;;;;;;7.55;2.70;;;30.70;59.20;;;;;;5079731;28;20073;-62
2021/07/04 12:22:37;;;;;;;7.28;1.98;;;30.60;59.40;;;;;;5082995;28;20431;-60
2021/07/04 12:25:19;;;;;;;5.82;2.05;;;30.60;59.50;;;;;;5080670;28;20098;-61
2021/07/04 12:27:54;;;;;;;7.68;1.52;;;30.50;60.30;;;;;;5082224;28;20080;-63
2021/07/04 12:30:40;;;;;;;5.20;1.67;;;30.50;61.10;;;;;;5084315;28;20525;-59
2021/07/04 12:33:08;;;;;;;4.93;1.30;;;30.30;62.20;;;;;;5085604;28;20453;-60
2021/07/04 12:35:54;;;;;;;5.25;1.92;;;30.30;62.90;;;;;;5085644;28;20168;-60
2021/07/04 12:38:22;;;;;;;8.68;2.20;;;30.30;63.40;;;;;;5083905;28;20069;-61
2021/07/04 12:41:11;;;;;;;7.70;1.95;;;30.20;63.70;;;;;;5085476;28;20076;-61
2021/07/04 12:43:43;;;;;;;5.93;1.75;;;30.10;64.20;;;;;;5085674;28;20077;-62
2021/07/04 12:46:28;;;;;;;5.97;1.77;;;30.10;64.70;;;;;;5087042;28;20448;-62
2021/07/04 12:48:57;;;;;;;9.85;1.90;;;30.00;65.10;;;;;;5084316;28;20129;-60
2021/07/04 12:51:38;;;;;;;6.50;2.03;;;30.00;66.40;;;;;;5083494;28;20101;-59
2021/07/04 12:54:21;;;;;;;10.75;2.10;;;29.90;66.90;;;;;;5082754;28;20533;-61
2021/07/04 12:56:50;;;;;;;10.00;2.25;;;29.80;67.50;;;;;;5081542;28;20072;-62